sensor_id;sensor_type;location;lat;lon;timestamp;P1;durP1;ratioP1;P2;durP2;ratioP2
27424;SDS011;15244;49.088;11.886;2023-06-14T00:01:35;3.33;;;2.45;;
27424;SDS011;15244;49.088;11.886;2023-06-14T00:06:42;2.40;;;2.20;;
27424;SDS011;15244;49.088;11.886;2023-06-14T00:11:46;2.85;;;2.65;;
27424;SDS011;15244;49.088;11.886;2023-06-14T00:16:55;5.47;;;2.20;;
27424;SDS011;15244;49.088;11.886;2023-06-14T00:22:05;7.70;;;2.47;;
27424;SDS011;15244;49.088;11.886;2023-06-14T00:27:09;2.75;;;2.55;;
27424;SDS011;15244;49.088;11.886;2023-06-14T00:32:11;3.15;;;2.95;;
27424;SDS011;15244;49.088;11.886;2023-06-14T00:37:13;2.50;;;2.30;;
27424;SDS011;15244;49.088;11.886;2023-06-14T00:42:26;5.47;;;2.53;;
27424;SDS011;15244;49.088;11.886;2023-06-14T00:47:34;2.65;;;2.50;;
27424;SDS011;15244;49.088;11.886;2023-06-14T00:52:39;2.58;;;2.38;;
27424;SDS011;15244;49.088;11.886;2023-06-14T00:57:46;3.13;;;2.92;;
27424;SDS011;15244;49.088;11.886;2023-06-14T01:02:51;2.85;;;2.65;;
27424;SDS011;15244;49.088;11.886;2023-06-14T01:13:21;3.20;;;2.70;;
27424;SDS011;15244;49.088;11.886;2023-06-14T01:18:33;3.20;;;2.90;;
27424;SDS011;15244;49.088;11.886;2023-06-14T01:23:36;4.07;;;2.55;;
27424;SDS011;15244;49.088;11.886;2023-06-14T01:28:44;2.75;;;2.40;;
27424;SDS011;15244;49.088;11.886;2023-06-14T01:33:54;3.08;;;2.55;;
27424;SDS011;15244;49.088;11.886;2023-06-14T01:39:01;3.35;;;2.58;;
27424;SDS011;15244;49.088;11.886;2023-06-14T01:44:09;2.50;;;2.35;;
27424;SDS011;15244;49.088;11.886;2023-06-14T01:49:20;6.07;;;2.78;;
27424;SDS011;15244;49.088;11.886;2023-06-14T01:54:21;3.38;;;2.75;;
27424;SDS011;15244;49.088;11.886;2023-06-14T01:59:31;3.63;;;3.33;;
27424;SDS011;15244;49.088;11.886;2023-06-14T02:04:36;2.83;;;2.63;;
27424;SDS011;15244;49.088;11.886;2023-06-14T02:09:40;3.15;;;2.72;;
27424;SDS011;15244;49.088;11.886;2023-06-14T02:14:48;2.97;;;2.77;;
27424;SDS011;15244;49.088;11.886;2023-06-14T02:19:51;3.10;;;2.53;;
27424;SDS011;15244;49.088;11.886;2023-06-14T02:24:56;3.58;;;2.67;;
27424;SDS011;15244;49.088;11.886;2023-06-14T02:30:09;3.00;;;2.70;;
27424;SDS011;15244;49.088;11.886;2023-06-14T02:35:14;4.55;;;2.88;;
27424;SDS011;15244;49.088;11.886;2023-06-14T02:40:18;3.25;;;2.95;;
27424;SDS011;15244;49.088;11.886;2023-06-14T02:45:24;4.13;;;2.85;;
27424;SDS011;15244;49.088;11.886;2023-06-14T02:50:28;3.28;;;3.08;;
27424;SDS011;15244;49.088;11.886;2023-06-14T02:55:32;3.63;;;2.40;;
27424;SDS011;15244;49.088;11.886;2023-06-14T03:00:36;2.67;;;2.47;;
27424;SDS011;15244;49.088;11.886;2023-06-14T03:05:41;3.28;;;2.90;;
27424;SDS011;15244;49.088;11.886;2023-06-14T03:10:51;3.05;;;2.60;;
27424;SDS011;15244;49.088;11.886;2023-06-14T03:15:58;3.00;;;2.70;;
27424;SDS011;15244;49.088;11.886;2023-06-14T03:21:04;3.08;;;2.88;;
27424;SDS011;15244;49.088;11.886;2023-06-14T03:26:14;3.00;;;2.80;;
27424;SDS011;15244;49.088;11.886;2023-06-14T03:31:28;3.00;;;2.70;;
27424;SDS011;15244;49.088;11.886;2023-06-14T03:36:38;3.13;;;2.67;;
27424;SDS011;15244;49.088;11.886;2023-06-14T03:41:45;4.60;;;2.83;;
27424;SDS011;15244;49.088;11.886;2023-06-14T03:46:49;4.85;;;2.80;;
27424;SDS011;15244;49.088;11.886;2023-06-14T03:51:54;4.43;;;2.80;;
27424;SDS011;15244;49.088;11.886;2023-06-14T03:57:05;3.28;;;2.60;;
27424;SDS011;15244;49.088;11.886;2023-06-14T04:02:13;3.00;;;2.80;;
27424;SDS011;15244;49.088;11.886;2023-06-14T04:07:21;3.40;;;3.10;;
27424;SDS011;15244;49.088;11.886;2023-06-14T04:12:26;3.38;;;3.08;;
27424;SDS011;15244;49.088;11.886;2023-06-14T04:17:30;3.00;;;2.80;;
27424;SDS011;15244;49.088;11.886;2023-06-14T04:22:39;3.40;;;3.10;;
27424;SDS011;15244;49.088;11.886;2023-06-14T04:27:53;3.67;;;3.33;;
27424;SDS011;15244;49.088;11.886;2023-06-14T04:33:01;4.40;;;3.23;;
27424;SDS011;15244;49.088;11.886;2023-06-14T04:38:09;3.42;;;3.13;;
27424;SDS011;15244;49.088;11.886;2023-06-14T04:43:15;3.08;;;2.88;;
27424;SDS011;15244;49.088;11.886;2023-06-14T04:48:23;9.80;;;3.10;;
27424;SDS011;15244;49.088;11.886;2023-06-14T04:53:30;3.28;;;2.92;;
27424;SDS011;15244;49.088;11.886;2023-06-14T04:58:37;3.60;;;3.30;;
27424;SDS011;15244;49.088;11.886;2023-06-14T05:03:44;3.13;;;2.92;;
27424;SDS011;15244;49.088;11.886;2023-06-14T05:08:56;5.07;;;2.90;;
27424;SDS011;15244;49.088;11.886;2023-06-14T05:14:02;7.20;;;3.45;;
27424;SDS011;15244;49.088;11.886;2023-06-14T05:19:11;2.97;;;2.78;;
27424;SDS011;15244;49.088;11.886;2023-06-14T05:24:21;3.47;;;3.17;;
27424;SDS011;15244;49.088;11.886;2023-06-14T05:29:25;5.68;;;3.15;;
27424;SDS011;15244;49.088;11.886;2023-06-14T05:34:33;3.50;;;3.30;;
27424;SDS011;15244;49.088;11.886;2023-06-14T05:39:46;3.65;;;3.33;;
27424;SDS011;15244;49.088;11.886;2023-06-14T05:44:52;3.15;;;2.90;;
27424;SDS011;15244;49.088;11.886;2023-06-14T05:49:59;3.60;;;3.30;;
27424;SDS011;15244;49.088;11.886;2023-06-14T05:55:06;4.05;;;3.10;;
27424;SDS011;15244;49.088;11.886;2023-06-14T06:00:10;3.50;;;3.20;;
27424;SDS011;15244;49.088;11.886;2023-06-14T06:05:16;3.28;;;3.00;;
27424;SDS011;15244;49.088;11.886;2023-06-14T06:10:28;3.67;;;3.38;;
27424;SDS011;15244;49.088;11.886;2023-06-14T06:15:30;3.30;;;3.10;;
27424;SDS011;15244;49.088;11.886;2023-06-14T06:20:36;3.00;;;2.80;;
27424;SDS011;15244;49.088;11.886;2023-06-14T06:25:40;3.40;;;3.10;;
27424;SDS011;15244;49.088;11.886;2023-06-14T06:30:47;3.65;;;3.45;;
27424;SDS011;15244;49.088;11.886;2023-06-14T06:35:48;3.47;;;3.28;;
27424;SDS011;15244;49.088;11.886;2023-06-14T06:40:50;4.40;;;3.08;;
27424;SDS011;15244;49.088;11.886;2023-06-14T06:45:58;3.10;;;2.90;;
27424;SDS011;15244;49.088;11.886;2023-06-14T06:51:04;2.90;;;2.70;;
27424;SDS011;15244;49.088;11.886;2023-06-14T06:56:14;3.92;;;2.97;;
27424;SDS011;15244;49.088;11.886;2023-06-14T07:01:20;3.15;;;2.95;;
27424;SDS011;15244;49.088;11.886;2023-06-14T07:06:32;3.40;;;3.10;;
27424;SDS011;15244;49.088;11.886;2023-06-14T07:11:37;3.63;;;3.30;;
27424;SDS011;15244;49.088;11.886;2023-06-14T07:16:40;3.05;;;2.80;;
27424;SDS011;15244;49.088;11.886;2023-06-14T07:21:44;2.90;;;2.70;;
27424;SDS011;15244;49.088;11.886;2023-06-14T07:26:46;3.20;;;3.00;;
27424;SDS011;15244;49.088;11.886;2023-06-14T07:31:49;3.30;;;3.10;;
27424;SDS011;15244;49.088;11.886;2023-06-14T07:36:53;8.77;;;2.92;;
27424;SDS011;15244;49.088;11.886;2023-06-14T07:42:02;3.47;;;3.17;;
27424;SDS011;15244;49.088;11.886;2023-06-14T07:47:09;3.83;;;2.90;;
27424;SDS011;15244;49.088;11.886;2023-06-14T07:52:21;2.80;;;2.60;;
27424;SDS011;15244;49.088;11.886;2023-06-14T07:57:27;2.65;;;2.55;;
27424;SDS011;15244;49.088;11.886;2023-06-14T08:02:37;2.60;;;2.40;;
27424;SDS011;15244;49.088;11.886;2023-06-14T08:07:39;3.08;;;2.80;;
27424;SDS011;15244;49.088;11.886;2023-06-14T08:12:41;3.70;;;2.78;;
27424;SDS011;15244;49.088;11.886;2023-06-14T08:17:47;2.60;;;2.50;;
27424;SDS011;15244;49.088;11.886;2023-06-14T08:22:49;3.00;;;2.70;;
27424;SDS011;15244;49.088;11.886;2023-06-14T08:28:00;2.75;;;2.55;;
27424;SDS011;15244;49.088;11.886;2023-06-14T08:33:04;2.75;;;2.55;;
27424;SDS011;15244;49.088;11.886;2023-06-14T08:38:19;2.78;;;2.58;;
27424;SDS011;15244;49.088;11.886;2023-06-14T08:43:29;2.55;;;2.35;;
27424;SDS011;15244;49.088;11.886;2023-06-14T08:48:32;2.70;;;2.50;;
27424;SDS011;15244;49.088;11.886;2023-06-14T08:53:34;2.75;;;2.55;;
27424;SDS011;15244;49.088;11.886;2023-06-14T08:58:45;2.20;;;2.10;;
27424;SDS011;15244;49.088;11.886;2023-06-14T09:03:51;4.65;;;3.03;;
27424;SDS011;15244;49.088;11.886;2023-06-14T09:08:56;3.00;;;2.70;;
27424;SDS011;15244;49.088;11.886;2023-06-14T09:14:03;3.05;;;2.72;;
27424;SDS011;15244;49.088;11.886;2023-06-14T09:19:06;2.83;;;2.53;;
27424;SDS011;15244;49.088;11.886;2023-06-14T09:24:20;2.30;;;2.10;;
27424;SDS011;15244;49.088;11.886;2023-06-14T09:29:27;2.20;;;2.10;;
27424;SDS011;15244;49.088;11.886;2023-06-14T09:34:29;2.58;;;2.38;;
27424;SDS011;15244;49.088;11.886;2023-06-14T09:39:31;2.08;;;1.98;;
27424;SDS011;15244;49.088;11.886;2023-06-14T09:44:37;3.10;;;2.70;;
27424;SDS011;15244;49.088;11.886;2023-06-14T09:49:52;3.05;;;2.28;;
27424;SDS011;15244;49.088;11.886;2023-06-14T09:55:06;3.17;;;2.30;;
27424;SDS011;15244;49.088;11.886;2023-06-14T10:00:18;2.90;;;2.35;;
27424;SDS011;15244;49.088;11.886;2023-06-14T10:05:26;2.80;;;2.60;;
27424;SDS011;15244;49.088;11.886;2023-06-14T10:10:34;6.72;;;2.50;;
27424;SDS011;15244;49.088;11.886;2023-06-14T10:15:47;2.53;;;2.40;;
27424;SDS011;15244;49.088;11.886;2023-06-14T10:26:02;3.35;;;2.63;;
27424;SDS011;15244;49.088;11.886;2023-06-14T10:31:05;3.55;;;2.55;;
27424;SDS011;15244;49.088;11.886;2023-06-14T10:36:24;2.50;;;2.30;;
27424;SDS011;15244;49.088;11.886;2023-06-14T10:41:50;2.85;;;2.30;;
27424;SDS011;15244;49.088;11.886;2023-06-14T10:47:00;4.43;;;2.40;;
27424;SDS011;15244;49.088;11.886;2023-06-14T10:52:05;2.37;;;2.17;;
27424;SDS011;15244;49.088;11.886;2023-06-14T10:57:12;2.97;;;2.50;;
27424;SDS011;15244;49.088;11.886;2023-06-14T11:13:05;2.42;;;2.20;;
27424;SDS011;15244;49.088;11.886;2023-06-14T11:23:27;2.40;;;2.20;;
27424;SDS011;15244;49.088;11.886;2023-06-14T11:28:37;3.00;;;2.78;;
27424;SDS011;15244;49.088;11.886;2023-06-14T11:33:40;2.47;;;2.30;;
27424;SDS011;15244;49.088;11.886;2023-06-14T11:38:45;2.45;;;2.30;;
27424;SDS011;15244;49.088;11.886;2023-06-14T11:44:01;2.50;;;2.30;;
27424;SDS011;15244;49.088;11.886;2023-06-14T11:49:03;4.25;;;2.20;;
27424;SDS011;15244;49.088;11.886;2023-06-14T11:54:11;2.47;;;2.30;;
27424;SDS011;15244;49.088;11.886;2023-06-14T11:59:18;2.25;;;2.15;;
27424;SDS011;15244;49.088;11.886;2023-06-14T12:04:26;2.30;;;2.10;;
27424;SDS011;15244;49.088;11.886;2023-06-14T12:09:32;2.88;;;2.53;;
27424;SDS011;15244;49.088;11.886;2023-06-14T12:14:34;2.30;;;2.20;;
27424;SDS011;15244;49.088;11.886;2023-06-14T12:19:41;2.10;;;2.00;;
27424;SDS011;15244;49.088;11.886;2023-06-14T12:24:51;2.15;;;2.05;;
27424;SDS011;15244;49.088;11.886;2023-06-14T12:30:02;4.20;;;2.50;;
27424;SDS011;15244;49.088;11.886;2023-06-14T12:35:06;2.25;;;1.98;;
27424;SDS011;15244;49.088;11.886;2023-06-14T12:40:16;2.42;;;2.30;;
27424;SDS011;15244;49.088;11.886;2023-06-14T12:45:22;2.25;;;2.10;;
27424;SDS011;15244;49.088;11.886;2023-06-14T12:50:25;3.17;;;2.60;;
27424;SDS011;15244;49.088;11.886;2023-06-14T12:55:31;3.40;;;1.98;;
27424;SDS011;15244;49.088;11.886;2023-06-14T13:00:43;3.17;;;2.65;;
27424;SDS011;15244;49.088;11.886;2023-06-14T13:05:57;2.60;;;2.40;;
27424;SDS011;15244;49.088;11.886;2023-06-14T13:11:09;5.55;;;2.30;;
27424;SDS011;15244;49.088;11.886;2023-06-14T13:16:15;3.15;;;2.08;;
27424;SDS011;15244;49.088;11.886;2023-06-14T13:21:21;3.35;;;2.05;;
27424;SDS011;15244;49.088;11.886;2023-06-14T13:26:27;2.22;;;2.13;;
27424;SDS011;15244;49.088;11.886;2023-06-14T13:31:33;4.22;;;2.22;;
27424;SDS011;15244;49.088;11.886;2023-06-14T13:36:39;1.95;;;1.85;;
27424;SDS011;15244;49.088;11.886;2023-06-14T13:41:42;2.60;;;2.33;;
27424;SDS011;15244;49.088;11.886;2023-06-14T13:46:45;2.30;;;2.10;;
27424;SDS011;15244;49.088;11.886;2023-06-14T13:51:53;2.25;;;2.13;;
27424;SDS011;15244;49.088;11.886;2023-06-14T13:56:54;2.22;;;2.13;;
27424;SDS011;15244;49.088;11.886;2023-06-14T14:01:56;5.45;;;2.00;;
27424;SDS011;15244;49.088;11.886;2023-06-14T14:06:58;3.25;;;2.22;;
27424;SDS011;15244;49.088;11.886;2023-06-14T14:12:02;2.92;;;2.35;;
27424;SDS011;15244;49.088;11.886;2023-06-14T14:17:04;2.10;;;2.00;;
27424;SDS011;15244;49.088;11.886;2023-06-14T14:22:13;2.15;;;1.83;;
27424;SDS011;15244;49.088;11.886;2023-06-14T14:27:16;5.82;;;2.20;;
27424;SDS011;15244;49.088;11.886;2023-06-14T14:32:24;1.67;;;1.58;;
27424;SDS011;15244;49.088;11.886;2023-06-14T14:37:33;2.28;;;2.08;;
27424;SDS011;15244;49.088;11.886;2023-06-14T14:42:37;2.65;;;1.75;;
27424;SDS011;15244;49.088;11.886;2023-06-14T14:47:48;2.00;;;1.90;;
27424;SDS011;15244;49.088;11.886;2023-06-14T14:52:53;2.55;;;2.10;;
27424;SDS011;15244;49.088;11.886;2023-06-14T14:58:07;2.20;;;2.05;;
27424;SDS011;15244;49.088;11.886;2023-06-14T15:03:11;2.65;;;1.92;;
27424;SDS011;15244;49.088;11.886;2023-06-14T15:08:15;1.95;;;1.85;;
27424;SDS011;15244;49.088;11.886;2023-06-14T15:13:19;2.10;;;2.00;;
27424;SDS011;15244;49.088;11.886;2023-06-14T15:18:24;1.88;;;1.60;;
27424;SDS011;15244;49.088;11.886;2023-06-14T15:23:33;2.10;;;2.00;;
27424;SDS011;15244;49.088;11.886;2023-06-14T15:28:36;1.92;;;1.83;;
27424;SDS011;15244;49.088;11.886;2023-06-14T15:33:43;2.08;;;1.98;;
27424;SDS011;15244;49.088;11.886;2023-06-14T15:38:44;2.75;;;2.10;;
27424;SDS011;15244;49.088;11.886;2023-06-14T15:43:52;2.72;;;1.70;;
27424;SDS011;15244;49.088;11.886;2023-06-14T15:48:56;2.00;;;1.90;;
27424;SDS011;15244;49.088;11.886;2023-06-14T15:53:58;1.45;;;1.35;;
27424;SDS011;15244;49.088;11.886;2023-06-14T15:59:02;2.10;;;1.90;;
27424;SDS011;15244;49.088;11.886;2023-06-14T16:04:15;2.03;;;1.90;;
27424;SDS011;15244;49.088;11.886;2023-06-14T16:09:17;2.50;;;2.03;;
27424;SDS011;15244;49.088;11.886;2023-06-14T16:14:30;1.73;;;1.63;;
27424;SDS011;15244;49.088;11.886;2023-06-14T16:19:42;1.95;;;1.83;;
27424;SDS011;15244;49.088;11.886;2023-06-14T16:24:44;2.55;;;1.60;;
27424;SDS011;15244;49.088;11.886;2023-06-14T16:29:48;2.60;;;2.05;;
27424;SDS011;15244;49.088;11.886;2023-06-14T16:34:56;1.60;;;1.50;;
27424;SDS011;15244;49.088;11.886;2023-06-14T16:40:03;1.65;;;1.55;;
27424;SDS011;15244;49.088;11.886;2023-06-14T16:45:05;2.10;;;1.98;;
27424;SDS011;15244;49.088;11.886;2023-06-14T16:50:10;2.08;;;1.88;;
27424;SDS011;15244;49.088;11.886;2023-06-14T16:55:15;1.70;;;1.60;;
27424;SDS011;15244;49.088;11.886;2023-06-14T17:00:17;3.90;;;1.80;;
27424;SDS011;15244;49.088;11.886;2023-06-14T17:05:33;2.42;;;1.98;;
27424;SDS011;15244;49.088;11.886;2023-06-14T17:10:38;1.80;;;1.70;;
27424;SDS011;15244;49.088;11.886;2023-06-14T17:15:39;7.30;;;2.00;;
27424;SDS011;15244;49.088;11.886;2023-06-14T17:20:45;1.75;;;1.65;;
27424;SDS011;15244;49.088;11.886;2023-06-14T17:25:55;2.60;;;2.00;;
27424;SDS011;15244;49.088;11.886;2023-06-14T17:30:56;1.98;;;1.80;;
27424;SDS011;15244;49.088;11.886;2023-06-14T17:36:02;2.00;;;1.90;;
27424;SDS011;15244;49.088;11.886;2023-06-14T17:41:04;2.97;;;1.85;;
27424;SDS011;15244;49.088;11.886;2023-06-14T17:46:10;1.70;;;1.60;;
27424;SDS011;15244;49.088;11.886;2023-06-14T17:51:14;2.03;;;1.92;;
27424;SDS011;15244;49.088;11.886;2023-06-14T17:56:16;1.80;;;1.70;;
27424;SDS011;15244;49.088;11.886;2023-06-14T18:01:22;2.80;;;1.73;;
27424;SDS011;15244;49.088;11.886;2023-06-14T18:06:28;1.73;;;1.63;;
27424;SDS011;15244;49.088;11.886;2023-06-14T18:11:29;2.25;;;1.40;;
27424;SDS011;15244;49.088;11.886;2023-06-14T18:16:36;2.40;;;1.90;;
27424;SDS011;15244;49.088;11.886;2023-06-14T18:21:46;1.50;;;1.40;;
27424;SDS011;15244;49.088;11.886;2023-06-14T18:26:48;2.60;;;1.77;;
27424;SDS011;15244;49.088;11.886;2023-06-14T18:32:02;1.80;;;1.70;;
27424;SDS011;15244;49.088;11.886;2023-06-14T18:37:05;1.95;;;1.85;;
27424;SDS011;15244;49.088;11.886;2023-06-14T18:42:23;2.08;;;1.70;;
27424;SDS011;15244;49.088;11.886;2023-06-14T18:47:32;1.80;;;1.70;;
27424;SDS011;15244;49.088;11.886;2023-06-14T18:52:36;1.92;;;1.83;;
27424;SDS011;15244;49.088;11.886;2023-06-14T18:57:54;2.25;;;1.80;;
27424;SDS011;15244;49.088;11.886;2023-06-14T19:03:12;2.58;;;1.63;;
27424;SDS011;15244;49.088;11.886;2023-06-14T19:08:17;1.90;;;1.80;;
27424;SDS011;15244;49.088;11.886;2023-06-14T19:13:20;5.18;;;1.95;;
27424;SDS011;15244;49.088;11.886;2023-06-14T19:18:23;1.70;;;1.60;;
27424;SDS011;15244;49.088;11.886;2023-06-14T19:23:27;2.13;;;1.90;;
27424;SDS011;15244;49.088;11.886;2023-06-14T19:28:33;2.55;;;1.65;;
27424;SDS011;15244;49.088;11.886;2023-06-14T19:33:42;2.20;;;2.00;;
27424;SDS011;15244;49.088;11.886;2023-06-14T19:38:48;2.20;;;2.10;;
27424;SDS011;15244;49.088;11.886;2023-06-14T19:43:54;2.17;;;2.08;;
27424;SDS011;15244;49.088;11.886;2023-06-14T19:48:57;2.25;;;2.10;;
27424;SDS011;15244;49.088;11.886;2023-06-14T19:54:24;2.00;;;1.80;;
27424;SDS011;15244;49.088;11.886;2023-06-14T19:59:33;2.42;;;2.08;;
27424;SDS011;15244;49.088;11.886;2023-06-14T20:04:45;2.20;;;1.98;;
27424;SDS011;15244;49.088;11.886;2023-06-14T20:09:59;1.90;;;1.80;;
27424;SDS011;15244;49.088;11.886;2023-06-14T20:15:05;2.20;;;2.10;;
27424;SDS011;15244;49.088;11.886;2023-06-14T20:20:12;2.50;;;2.30;;
27424;SDS011;15244;49.088;11.886;2023-06-14T20:25:24;3.70;;;2.03;;
27424;SDS011;15244;49.088;11.886;2023-06-14T20:30:26;2.03;;;1.92;;
27424;SDS011;15244;49.088;11.886;2023-06-14T20:35:29;2.20;;;2.10;;
27424;SDS011;15244;49.088;11.886;2023-06-14T20:40:31;2.40;;;2.20;;
27424;SDS011;15244;49.088;11.886;2023-06-14T20:45:34;2.20;;;2.10;;
27424;SDS011;15244;49.088;11.886;2023-06-14T20:50:45;2.10;;;2.00;;
27424;SDS011;15244;49.088;11.886;2023-06-14T20:55:50;2.55;;;2.10;;
27424;SDS011;15244;49.088;11.886;2023-06-14T21:00:52;2.38;;;2.17;;
27424;SDS011;15244;49.088;11.886;2023-06-14T21:05:55;2.33;;;2.22;;
27424;SDS011;15244;49.088;11.886;2023-06-14T21:11:00;2.60;;;2.40;;
27424;SDS011;15244;49.088;11.886;2023-06-14T21:16:05;2.60;;;2.40;;
27424;SDS011;15244;49.088;11.886;2023-06-14T21:21:10;2.60;;;2.50;;
27424;SDS011;15244;49.088;11.886;2023-06-14T21:26:12;2.60;;;2.40;;
27424;SDS011;15244;49.088;11.886;2023-06-14T21:31:17;2.65;;;2.40;;
27424;SDS011;15244;49.088;11.886;2023-06-14T21:36:19;2.90;;;2.50;;
27424;SDS011;15244;49.088;11.886;2023-06-14T21:41:20;5.07;;;2.55;;
27424;SDS011;15244;49.088;11.886;2023-06-14T21:46:30;2.58;;;2.47;;
27424;SDS011;15244;49.088;11.886;2023-06-14T21:51:36;2.58;;;2.38;;
27424;SDS011;15244;49.088;11.886;2023-06-14T21:56:41;2.80;;;2.60;;
27424;SDS011;15244;49.088;11.886;2023-06-14T22:01:47;2.47;;;2.30;;
27424;SDS011;15244;49.088;11.886;2023-06-14T22:06:50;2.40;;;2.30;;
27424;SDS011;15244;49.088;11.886;2023-06-14T22:11:59;2.60;;;2.50;;
27424;SDS011;15244;49.088;11.886;2023-06-14T22:17:03;4.05;;;2.65;;
27424;SDS011;15244;49.088;11.886;2023-06-14T22:22:18;2.53;;;2.35;;
27424;SDS011;15244;49.088;11.886;2023-06-14T22:27:30;3.17;;;2.97;;
27424;SDS011;15244;49.088;11.886;2023-06-14T22:32:37;3.20;;;3.00;;
27424;SDS011;15244;49.088;11.886;2023-06-14T22:37:46;2.72;;;2.53;;
27424;SDS011;15244;49.088;11.886;2023-06-14T22:42:48;2.90;;;2.70;;
27424;SDS011;15244;49.088;11.886;2023-06-14T22:47:51;4.07;;;3.03;;
27424;SDS011;15244;49.088;11.886;2023-06-14T22:52:57;3.03;;;2.70;;
27424;SDS011;15244;49.088;11.886;2023-06-14T22:57:58;3.20;;;3.00;;
27424;SDS011;15244;49.088;11.886;2023-06-14T23:03:01;3.38;;;3.17;;
27424;SDS011;15244;49.088;11.886;2023-06-14T23:08:07;3.15;;;2.95;;
27424;SDS011;15244;49.088;11.886;2023-06-14T23:13:12;3.25;;;2.95;;
27424;SDS011;15244;49.088;11.886;2023-06-14T23:18:17;4.55;;;3.10;;
27424;SDS011;15244;49.088;11.886;2023-06-14T23:23:23;3.95;;;3.65;;
27424;SDS011;15244;49.088;11.886;2023-06-14T23:28:24;2.78;;;2.60;;
27424;SDS011;15244;49.088;11.886;2023-06-14T23:33:33;3.78;;;3.53;;
27424;SDS011;15244;49.088;11.886;2023-06-14T23:38:38;3.72;;;3.42;;
27424;SDS011;15244;49.088;11.886;2023-06-14T23:43:48;3.45;;;3.17;;
27424;SDS011;15244;49.088;11.886;2023-06-14T23:48:53;3.10;;;2.92;;
27424;SDS011;15244;49.088;11.886;2023-06-14T23:54:06;4.10;;;3.70;;
27424;SDS011;15244;49.088;11.886;2023-06-14T23:59:14;3.78;;;3.58;;
